Terminal Aerodrome Forecast
Issued by NWS Charleston, WV

Current Version | Previous Version | Graphics & Text | Print | Product List | Glossary On
Versions: 1 2 3 4 5 6 7 8 9 10 11 12 13 14 15 16 17 18 19 20 21 22 23
000
FTUS41 KRLX 160300 AAA
TAFPKB
TAF AMD
KPKB 160302Z 1603/1624 00000KT 5SM BR SCT200
     FM160400 11004KT P6SM SCT250
     FM161000 VRB03KT P6SM -SHRA OVC030
     FM161800 22008G16KT P6SM VCSH OVC015=

USA.gov is the U.S. government's official web portal to all federal, state and local government web resources and services.